Time;durP1;ratioP1;P1;durP2;ratioP2;P2;SDS_P1;SDS_P2;PMS_P1;PMS_P2;Temp;Humidity;BMP_temperature;BMP_pressure;BME280_temperature;BME280_humidity;BME280_pressure;Samples;Min_cycle;Max_cycle;Signal;HPM_P1;HPM_P2
2022/12/03 00:02:15;;;;;;;49.27;18.93;;;;;;;0.05;99.29;101699.50;5098800;28;20200;-80
2022/12/03 00:04:41;;;;;;;54.73;18.20;;;;;;;0.03;99.49;101700.38;5087245;28;20225;-79
2022/12/03 00:07:08;;;;;;;47.07;18.27;;;;;;;0.04;99.30;101702.13;5091922;28;20213;-80
2022/12/03 00:09:36;;;;;;;55.03;18.37;;;;;;;0.02;99.33;101696.00;5103454;28;20204;-80
2022/12/03 00:12:02;;;;;;;51.07;18.83;;;;;;;0.03;99.22;101700.38;5103437;28;20239;-80
2022/12/03 00:14:29;;;;;;;49.90;18.67;;;;;;;0.00;99.01;101691.66;5100893;28;20235;-79
2022/12/03 00:16:55;;;;;;;50.30;17.87;;;;;;;0.00;99.14;101696.03;5096869;28;20224;-80
2022/12/03 00:19:22;;;;;;;49.03;17.40;;;;;;;0.00;99.27;101701.28;5099698;28;20196;-80
2022/12/03 00:21:48;;;;;;;52.07;18.47;;;;;;;-0.01;99.13;101699.53;5098671;28;20205;-80
2022/12/03 00:24:14;;;;;;;48.87;18.20;;;;;;;-0.03;98.96;101696.91;5101458;28;20581;-79
2022/12/03 00:26:42;;;;;;;46.40;17.97;;;;;;;-0.03;99.09;101688.19;5100355;28;20196;-80
2022/12/03 00:29:10;;;;;;;45.67;15.50;;;;;;;-0.05;99.13;101693.44;5091949;28;20218;-79
2022/12/03 00:31:36;;;;;;;40.60;16.40;;;;;;;-0.05;98.84;101696.06;5092224;28;20201;-79
2022/12/03 00:34:03;;;;;;;37.53;15.60;;;;;;;-0.05;98.92;101695.19;5090773;28;20609;-79
2022/12/03 00:36:29;;;;;;;45.00;17.00;;;;;;;-0.07;98.97;101695.19;5091203;28;20215;-80
2022/12/03 00:38:56;;;;;;;38.80;14.67;;;;;;;-0.06;98.97;101696.06;5096688;28;20280;-80
2022/12/03 00:41:22;;;;;;;47.53;17.67;;;;;;;-0.06;99.02;101696.06;5092040;28;20683;-80
2022/12/03 00:43:50;;;;;;;36.47;14.97;;;;;;;-0.06;99.01;101691.69;5094911;28;20232;-80
2022/12/03 00:46:16;;;;;;;40.10;14.93;;;;;;;-0.07;98.87;101694.31;5097213;28;20287;-80
2022/12/03 00:48:43;;;;;;;40.73;14.03;;;;;;;-0.09;98.83;101691.69;5095975;28;20201;-80
2022/12/03 00:51:09;;;;;;;40.97;16.03;;;;;;;-0.09;98.74;101689.06;5094799;28;20197;-80
2022/12/03 00:53:36;;;;;;;40.97;16.90;;;;;;;-0.08;98.61;101687.34;5092745;28;20196;-80
2022/12/03 00:56:02;;;;;;;41.40;14.73;;;;;;;-0.09;98.66;101690.81;5095038;28;20236;-80
2022/12/03 00:58:28;;;;;;;43.47;16.73;;;;;;;-0.11;98.45;101682.97;5096738;28;20209;-79
2022/12/03 01:00:56;;;;;;;38.37;17.27;;;;;;;-0.13;98.14;101683.84;5099113;28;20220;-80
2022/12/03 01:03:23;;;;;;;44.33;17.53;;;;;;;-0.14;98.43;101689.94;5096959;28;20261;-79
2022/12/03 01:05:49;;;;;;;49.63;18.53;;;;;;;-0.17;97.82;101696.06;5095909;28;20237;-79
2022/12/03 01:08:16;;;;;;;41.87;17.47;;;;;;;-0.20;98.02;101695.22;5093088;28;20200;-80
2022/12/03 01:10:42;;;;;;;40.43;15.73;;;;;;;-0.22;97.92;101690.00;5092042;28;20219;-80
2022/12/03 01:13:09;;;;;;;43.47;15.63;;;;;;;-0.23;97.65;101692.63;5094021;28;20204;-80
2022/12/03 01:15:35;;;;;;;43.47;16.53;;;;;;;-0.27;97.52;101686.50;5093486;28;20687;-80
2022/12/03 01:18:03;;;;;;;39.90;14.70;;;;;;;-0.26;97.60;101688.25;5094254;28;20201;-80
2022/12/03 01:20:30;;;;;;;55.13;17.77;;;;;;;-0.25;97.69;101702.22;5092395;28;20204;-81
2022/12/03 01:22:56;;;;;;;50.00;17.93;;;;;;;-0.27;97.80;101702.22;5092762;28;20692;-80
2022/12/03 01:25:22;;;;;;;48.13;17.77;;;;;;;-0.27;97.53;101704.84;5095118;28;20232;-80
2022/12/03 01:27:49;;;;;;;44.07;16.77;;;;;;;-0.26;97.62;101701.34;5088593;28;20216;-79
2022/12/03 01:30:15;;;;;;;48.77;16.87;;;;;;;-0.25;97.67;101705.72;5093161;28;20211;-80
2022/12/03 01:32:41;;;;;;;50.53;18.67;;;;;;;-0.24;97.57;101696.09;5101085;28;20220;-79
2022/12/03 01:35:09;;;;;;;51.03;17.60;;;;;;;-0.23;97.47;101703.97;5101991;28;20559;-80
2022/12/03 01:37:35;;;;;;;47.20;17.60;;;;;;;-0.24;97.39;101696.97;5095001;28;20208;-81
2022/12/03 01:40:02;;;;;;;48.10;19.93;;;;;;;-0.27;97.27;101694.34;5100648;28;20565;-80
2022/12/03 01:42:31;;;;;;;49.20;18.57;;;;;;;-0.29;97.58;101698.72;5099015;28;20200;-81
2022/12/03 01:44:58;;;;;;;42.63;17.03;;;;;;;-0.28;97.57;101700.47;5096161;28;20228;-80
2022/12/03 01:47:30;;;;;;;50.77;17.80;;;;;;;-0.27;97.60;101698.72;5096385;28;20205;-80
2022/12/03 01:50:01;;;;;;;52.83;19.53;;;;;;;-0.27;97.41;101696.97;5097887;28;20204;-80
2022/12/03 01:52:34;;;;;;;60.90;20.27;;;;;;;-0.29;97.65;101690.88;5098661;28;20208;-79
2022/12/03 01:55:03;;;;;;;54.80;20.97;;;;;;;-0.29;97.60;101700.47;5096395;28;20231;-79
2022/12/03 01:57:37;;;;;;;53.47;18.93;;;;;;;-0.29;97.43;101698.72;5097743;28;20204;-80
2022/12/03 02:00:04;;;;;;;60.60;20.40;;;;;;;-0.31;97.41;101705.72;5094668;28;20207;-81
2022/12/03 02:02:32;;;;;;;60.73;20.23;;;;;;;-0.31;97.44;101704.84;5097832;28;20204;-80
2022/12/03 02:04:59;;;;;;;51.90;18.63;;;;;;;-0.33;97.24;101699.59;5093900;28;20228;-80
2022/12/03 02:07:28;;;;;;;56.17;19.33;;;;;;;-0.34;97.24;101700.47;5093147;28;20216;-81
2022/12/03 02:09:58;;;;;;;54.77;19.67;;;;;;;-0.38;97.09;101699.63;5094521;28;20220;-81
2022/12/03 02:12:32;;;;;;;47.13;16.87;;;;;;;-0.37;97.26;101703.13;5089714;28;20932;-81
2022/12/03 02:14:59;;;;;;;49.33;17.90;;;;;;;-0.39;97.01;101702.25;5089408;28;20973;-82
2022/12/03 02:17:26;;;;;;;48.90;18.87;;;;;;;-0.42;97.06;101710.09;5094289;28;20204;-80
2022/12/03 02:19:54;;;;;;;50.60;17.00;;;;;;;-0.43;96.75;101705.75;5095862;28;20313;-81
2022/12/03 02:22:33;;;;;;;49.70;18.43;;;;;;;-0.44;97.00;101707.47;5100977;28;20215;-81
2022/12/03 02:25:12;;;;;;;52.57;19.00;;;;;;;-0.44;96.88;101704.88;5094047;28;20243;-81
2022/12/03 02:27:39;;;;;;;50.53;18.93;;;;;;;-0.42;96.84;101700.50;5096287;28;20211;-80
2022/12/03 02:30:07;;;;;;;48.47;18.60;;;;;;;-0.40;96.88;101705.75;5095637;28;20604;-81
2022/12/03 02:32:34;;;;;;;54.13;19.40;;;;;;;-0.38;97.02;101704.00;5089866;28;20200;-80
2022/12/03 02:35:00;;;;;;;52.90;18.83;;;;;;;-0.38;97.09;101702.25;5092859;28;20231;-80
2022/12/03 02:37:30;;;;;;;46.60;17.17;;;;;;;-0.36;96.97;101703.09;5096809;28;20204;-82
2022/12/03 02:40:00;;;;;;;53.47;19.23;;;;;;;-0.38;96.20;101693.53;5097671;28;20209;-80
2022/12/03 02:42:34;;;;;;;50.37;19.27;;;;;;;-0.39;96.70;101708.34;5096119;28;20242;-82
2022/12/03 02:45:03;;;;;;;53.20;19.20;;;;;;;-0.40;96.67;101706.63;5096913;28;20239;-82
2022/12/03 02:47:30;;;;;;;51.67;19.37;;;;;;;-0.41;96.44;101701.38;5093381;28;20204;-81
2022/12/03 02:49:58;;;;;;;54.77;19.50;;;;;;;-0.39;96.70;101704.88;5093322;28;20607;-82
2022/12/03 02:52:25;;;;;;;49.37;18.87;;;;;;;-0.38;96.76;101693.53;5096400;28;20220;-82
2022/12/03 02:54:52;;;;;;;51.20;18.07;;;;;;;-0.38;96.58;101694.41;5093372;28;20232;-81
2022/12/03 02:57:18;;;;;;;53.73;18.17;;;;;;;-0.37;96.41;101695.28;5090485;28;20579;-81
2022/12/03 02:59:46;;;;;;;52.93;18.10;;;;;;;-0.38;96.39;101699.63;5096113;28;20222;-81
2022/12/03 03:02:14;;;;;;;55.67;19.03;;;;;;;-0.38;96.34;101697.00;5092603;28;20368;-81
2022/12/03 03:04:42;;;;;;;47.20;17.07;;;;;;;-0.38;96.33;101698.75;5094825;28;20838;-81
2022/12/03 03:07:09;;;;;;;58.57;18.63;;;;;;;-0.38;96.08;101689.16;5097496;28;20204;-81
2022/12/03 03:09:36;;;;;;;50.80;18.03;;;;;;;-0.37;96.21;101697.88;5095322;28;20582;-81
2022/12/03 03:12:02;;;;;;;50.63;17.27;;;;;;;-0.36;96.27;101689.16;5098283;28;20209;-82
2022/12/03 03:14:29;;;;;;;52.03;17.87;;;;;;;-0.35;96.26;101698.72;5098517;28;20231;-81
2022/12/03 03:16:57;;;;;;;53.80;18.47;;;;;;;-0.37;96.04;101700.50;5098093;28;20213;-81
2022/12/03 03:19:25;;;;;;;55.83;20.00;;;;;;;-0.38;95.96;101699.63;5093918;28;20214;-82
2022/12/03 03:21:52;;;;;;;54.90;19.67;;;;;;;-0.38;96.39;101701.38;5092735;28;20663;-81
2022/12/03 03:24:19;;;;;;;50.17;17.03;;;;;;;-0.40;96.17;101687.41;5096370;28;20228;-81
2022/12/03 03:26:45;;;;;;;47.23;15.57;;;;;;;-0.42;96.12;101690.03;5099114;28;20218;-80
2022/12/03 03:29:12;;;;;;;45.13;17.00;;;;;;;-0.43;96.30;101690.03;5095088;28;20204;-80
2022/12/03 03:31:40;;;;;;;42.93;16.63;;;;;;;-0.42;95.94;101694.41;5095862;28;20226;-82
2022/12/03 03:34:08;;;;;;;43.27;15.77;;;;;;;-0.42;96.20;101699.63;5093084;28;20219;-81
2022/12/03 03:36:35;;;;;;;41.17;15.47;;;;;;;-0.43;96.09;101684.81;5096697;28;20215;-81
2022/12/03 03:39:02;;;;;;;32.27;14.33;;;;;;;-0.44;96.13;101690.91;5093201;28;20204;-80
2022/12/03 03:41:30;;;;;;;35.37;13.40;;;;;;;-0.45;95.92;101687.41;5092225;28;20242;-81
2022/12/03 03:43:56;;;;;;;37.67;15.53;;;;;;;-0.44;96.10;101688.28;5091970;28;20216;-81
2022/12/03 03:46:23;;;;;;;37.83;14.27;;;;;;;-0.45;95.84;101682.19;5096112;28;20224;-80
2022/12/03 03:48:51;;;;;;;35.17;13.93;;;;;;;-0.42;95.96;101681.31;5098285;28;20223;-81
2022/12/03 03:51:19;;;;;;;36.77;14.10;;;;;;;-0.42;95.70;101681.31;5098650;28;20200;-80
2022/12/03 03:53:49;;;;;;;34.90;13.23;;;;;;;-0.41;95.63;101673.47;5101918;28;20212;-80
2022/12/03 03:56:17;;;;;;;34.63;12.60;;;;;;;-0.43;95.86;101674.34;5094188;28;20716;-80
2022/12/03 03:58:44;;;;;;;36.50;13.50;;;;;;;-0.43;95.52;101669.97;5103700;28;20200;-80
2022/12/03 04:01:13;;;;;;;40.63;14.87;;;;;;;-0.42;95.77;101670.84;5100129;28;20200;-80
2022/12/03 04:03:40;;;;;;;45.57;16.60;;;;;;;-0.41;95.54;101673.47;5101298;28;20200;-80
2022/12/03 04:06:07;;;;;;;46.33;16.77;;;;;;;-0.40;95.47;101669.09;5100369;28;20242;-80
2022/12/03 04:08:35;;;;;;;46.63;16.53;;;;;;;-0.40;95.50;101671.72;5097541;28;20211;-80
2022/12/03 04:13:46;;;;;;;48.67;17.97;;;;;;;-0.40;95.53;101669.09;5098557;28;20249;-80
2022/12/03 04:16:12;;;;;;;44.27;15.20;;;;;;;-0.40;95.34;101675.19;5096597;28;20216;-81
2022/12/03 04:18:44;;;;;;;42.40;15.17;;;;;;;-0.42;95.59;101668.22;5099349;28;20196;-81
2022/12/03 04:23:57;;;;;;;36.57;12.93;;;;;;;-0.44;95.81;101670.84;5100819;28;20254;-81
2022/12/03 04:29:08;;;;;;;42.17;17.17;;;;;;;-0.47;95.63;101672.59;5100296;28;20632;-80
2022/12/03 04:37:03;;;;;;;46.53;15.73;;;;;;;-0.47;96.14;101667.34;5094084;28;20250;-82
2022/12/03 04:39:31;;;;;;;40.10;14.73;;;;;;;-0.46;96.23;101671.72;5099907;28;20231;-82
2022/12/03 04:41:57;;;;;;;38.77;13.40;;;;;;;-0.47;95.99;101662.13;5099435;28;20204;-81
2022/12/03 04:44:34;;;;;;;35.50;13.53;;;;;;;-0.45;96.26;101665.63;5098897;28;20244;-81
2022/12/03 04:47:02;;;;;;;35.03;12.50;;;;;;;-0.47;96.06;101663.00;5096030;28;20207;-81
2022/12/03 04:49:28;;;;;;;36.73;14.47;;;;;;;-0.47;96.36;101662.13;5096446;28;20216;-80
2022/12/03 04:51:55;;;;;;;32.77;12.90;;;;;;;-0.49;96.23;101658.63;5099169;28;20215;-81
2022/12/03 04:54:21;;;;;;;34.17;14.07;;;;;;;-0.50;96.09;101656.88;5100739;28;20232;-80
2022/12/03 04:56:49;;;;;;;34.27;14.07;;;;;;;-0.52;95.99;101662.13;5103465;28;20196;-80
2022/12/03 04:59:16;;;;;;;32.77;12.47;;;;;;;-0.53;96.01;101664.75;5102629;28;20204;-80
2022/12/03 05:01:42;;;;;;;38.83;12.90;;;;;;;-0.56;96.22;101656.91;5100582;28;20201;-81
2022/12/03 05:04:09;;;;;;;30.37;12.57;;;;;;;-0.57;96.01;101660.41;5101686;28;20215;-80
2022/12/03 05:06:35;;;;;;;35.47;13.93;;;;;;;-0.59;95.85;101662.16;5102251;28;20207;-80
2022/12/03 05:09:02;;;;;;;35.60;12.87;;;;;;;-0.59;95.86;101662.16;5102354;28;21185;-81
2022/12/03 05:11:29;;;;;;;33.40;12.40;;;;;;;-0.59;96.04;101659.53;5101581;28;20218;-81
2022/12/03 05:13:57;;;;;;;31.47;13.40;;;;;;;-0.61;95.89;101664.78;5095019;28;20209;-80
2022/12/03 05:16:23;;;;;;;33.70;13.33;;;;;;;-0.61;95.73;101650.81;5101068;28;20230;-81
2022/12/03 05:18:49;;;;;;;41.63;15.00;;;;;;;-0.61;95.71;101653.44;5100018;28;20208;-81
2022/12/03 05:21:16;;;;;;;35.13;13.70;;;;;;;-0.59;96.01;101659.53;5097269;28;21168;-80
2022/12/03 05:23:43;;;;;;;41.73;15.60;;;;;;;-0.61;95.72;101649.06;5100903;28;20200;-82
2022/12/03 05:26:15;;;;;;;37.90;14.77;;;;;;;-0.62;95.78;101659.53;5096416;28;20257;-83
2022/12/03 05:28:41;;;;;;;36.47;15.33;;;;;;;-0.63;95.68;101661.28;5094181;28;20681;-81
2022/12/03 05:31:09;;;;;;;37.20;14.17;;;;;;;-0.63;95.60;101657.78;5093690;28;20215;-81
2022/12/03 05:33:36;;;;;;;42.77;16.20;;;;;;;-0.65;95.32;101651.69;5098888;28;20230;-81
2022/12/03 05:36:03;;;;;;;45.83;16.57;;;;;;;-0.64;95.38;101658.66;5091332;28;20220;-81
2022/12/03 05:38:29;;;;;;;42.83;17.37;;;;;;;-0.64;95.13;101653.44;5092444;28;20203;-81
2022/12/03 05:40:59;;;;;;;43.13;15.23;;;;;;;-0.64;94.86;101656.06;5087567;28;20213;-81
2022/12/03 05:43:24;;;;;;;43.43;17.17;;;;;;;-0.65;94.96;101649.94;5090291;28;21336;-80
2022/12/03 05:45:51;;;;;;;44.97;17.07;;;;;;;-0.66;94.93;101660.41;5089032;28;20611;-80
2022/12/03 05:48:18;;;;;;;42.53;17.10;;;;;;;-0.66;94.71;101655.19;5091315;28;20196;-80
2022/12/03 05:50:46;;;;;;;43.63;17.10;;;;;;;-0.66;94.84;101656.03;5092165;28;20197;-80
2022/12/03 05:53:14;;;;;;;46.13;18.53;;;;;;;-0.65;94.84;101660.41;5093845;28;20214;-80
2022/12/03 05:55:40;;;;;;;46.73;18.03;;;;;;;-0.67;94.91;101659.53;5093995;28;20230;-81
2022/12/03 05:58:07;;;;;;;42.97;16.17;;;;;;;-0.67;94.62;101658.66;5092523;28;20207;-81
2022/12/03 06:00:36;;;;;;;43.37;18.73;;;;;;;-0.70;94.45;101652.56;5095119;28;20211;-80
2022/12/03 06:03:03;;;;;;;38.10;16.10;;;;;;;-0.72;94.64;101651.69;5089909;28;20208;-82
2022/12/03 06:05:31;;;;;;;47.63;18.47;;;;;;;-0.71;94.60;101652.56;5093491;28;20228;-82
2022/12/03 06:07:58;;;;;;;42.10;16.60;;;;;;;-0.74;94.48;101648.22;5092601;28;20220;-82
2022/12/03 06:10:25;;;;;;;42.00;15.53;;;;;;;-0.71;94.18;101649.94;5093123;28;20208;-82
2022/12/03 06:12:52;;;;;;;40.57;16.07;;;;;;;-0.73;94.66;101647.34;5093004;28;20217;-82
2022/12/03 06:15:19;;;;;;;35.40;15.53;;;;;;;-0.73;94.36;101654.34;5092905;28;20705;-81
2022/12/03 06:17:46;;;;;;;42.93;16.80;;;;;;;-0.73;94.09;101649.97;5087048;28;20268;-82
2022/12/03 06:20:14;;;;;;;38.77;15.13;;;;;;;-0.73;94.25;101657.81;5091098;28;20206;-81
2022/12/03 06:22:42;;;;;;;38.20;15.60;;;;;;;-0.73;93.98;101660.44;5093064;28;20575;-81
2022/12/03 06:25:09;;;;;;;37.80;15.87;;;;;;;-0.72;93.91;101654.31;5088367;28;20676;-82
2022/12/03 06:27:36;;;;;;;41.03;17.27;;;;;;;-0.71;93.87;101656.03;5089374;28;20204;-82
2022/12/03 06:30:03;;;;;;;42.33;16.60;;;;;;;-0.72;93.77;101651.69;5088996;28;20210;-81
2022/12/03 06:32:30;;;;;;;42.63;16.77;;;;;;;-0.71;93.45;101657.78;5087300;28;20235;-81
2022/12/03 06:34:56;;;;;;;42.30;16.47;;;;;;;-0.72;93.53;101654.31;5086969;28;20228;-82
2022/12/03 06:37:23;;;;;;;49.07;19.77;;;;;;;-0.72;93.40;101651.69;5084922;28;20205;-79
2022/12/03 06:39:51;;;;;;;49.53;20.40;;;;;;;-0.72;93.26;101658.69;5089396;28;20224;-81
2022/12/03 06:42:17;;;;;;;57.20;19.83;;;;;;;-0.73;93.23;101657.81;5087886;28;20211;-79
2022/12/03 06:44:43;;;;;;;51.10;20.43;;;;;;;-0.74;93.23;101658.69;5090746;28;20231;-82
2022/12/03 06:47:10;;;;;;;54.77;18.80;;;;;;;-0.75;92.92;101659.56;5090270;28;20205;-82
2022/12/03 06:49:36;;;;;;;54.67;19.40;;;;;;;-0.74;93.04;101657.81;5086258;28;20216;-82
2022/12/03 06:52:03;;;;;;;48.07;18.97;;;;;;;-0.74;92.61;101657.81;5089119;28;20219;-82
2022/12/03 06:54:29;;;;;;;52.00;19.10;;;;;;;-0.74;92.79;101666.53;5087488;28;20225;-83
2022/12/03 06:56:57;;;;;;;58.30;19.50;;;;;;;-0.75;92.88;101656.06;5087155;28;20204;-83
2022/12/03 06:59:24;;;;;;;55.00;21.00;;;;;;;-0.76;92.78;101663.03;5089371;28;20200;-82
2022/12/03 07:01:50;;;;;;;60.53;22.43;;;;;;;-0.76;92.51;101654.34;5091654;28;20240;-83
2022/12/03 07:04:17;;;;;;;65.30;22.40;;;;;;;-0.77;92.63;101658.69;5087314;28;20721;-82
2022/12/03 07:06:43;;;;;;;52.23;20.10;;;;;;;-0.76;92.74;101663.03;5086192;28;20225;-82
2022/12/03 07:09:10;;;;;;;65.30;24.27;;;;;;;-0.78;92.42;101656.06;5084796;28;20208;-83
2022/12/03 07:11:39;;;;;;;59.67;22.87;;;;;;;-0.79;92.56;101649.97;5087503;28;20201;-81
2022/12/03 07:14:09;;;;;;;72.53;22.87;;;;;;;-0.79;92.63;101644.75;5093416;28;20204;-82
2022/12/03 07:16:37;;;;;;;60.87;23.70;;;;;;;-0.80;92.37;101648.22;5083866;28;20193;-82
2022/12/03 07:19:05;;;;;;;63.17;23.67;;;;;;;-0.80;92.53;101645.59;5089031;28;20211;-82
2022/12/03 07:21:32;;;;;;;64.97;22.57;;;;;;;-0.80;92.52;101643.00;5088841;28;20693;-81
2022/12/03 07:24:01;;;;;;;65.63;21.90;;;;;;;-0.81;92.38;101651.72;5088100;28;20212;-82
2022/12/03 07:26:27;;;;;;;53.47;22.17;;;;;;;-0.80;92.37;101649.97;5096725;28;20584;-81
2022/12/03 07:28:54;;;;;;;57.73;24.57;;;;;;;-0.81;92.57;101646.47;5095474;28;20212;-81
2022/12/03 07:31:22;;;;;;;60.70;22.63;;;;;;;-0.81;92.39;101651.72;5094729;28;20203;-82
2022/12/03 07:33:48;;;;;;;65.47;22.23;;;;;;;-0.82;92.49;101644.75;5088768;28;20651;-82
2022/12/03 07:36:15;;;;;;;79.13;23.13;;;;;;;-0.82;92.80;101644.75;5090154;28;20223;-83
2022/12/03 07:38:41;;;;;;;70.10;24.50;;;;;;;-0.83;92.59;101644.72;5091612;28;20207;-82
2022/12/03 07:41:07;;;;;;;64.80;23.33;;;;;;;-0.84;92.73;101646.47;5089477;28;20213;-83
2022/12/03 07:43:34;;;;;;;75.43;25.53;;;;;;;-0.84;92.90;101636.00;5092571;28;20539;-82
2022/12/03 07:46:00;;;;;;;64.67;23.07;;;;;;;-0.83;92.89;101642.13;5096710;28;20735;-82
2022/12/03 07:48:28;;;;;;;74.80;25.80;;;;;;;-0.83;92.61;101636.88;5092816;28;20459;-81
2022/12/03 07:50:55;;;;;;;70.80;24.17;;;;;;;-0.85;92.43;101630.78;5093506;28;20204;-81
2022/12/03 07:53:21;;;;;;;64.30;23.23;;;;;;;-0.88;92.73;101634.28;5093075;28;20588;-81
2022/12/03 07:55:48;;;;;;;67.00;23.93;;;;;;;-0.88;92.77;101636.88;5088893;28;20229;-80
2022/12/03 07:58:14;;;;;;;80.10;26.20;;;;;;;-0.91;92.63;101631.69;5096697;28;20204;-83
2022/12/03 08:00:41;;;;;;;77.30;27.00;;;;;;;-0.91;92.68;101636.91;5093862;28;20215;-82
2022/12/03 08:03:09;;;;;;;78.43;26.20;;;;;;;-0.91;93.11;101629.06;5091675;28;20227;-81
2022/12/03 08:05:36;;;;;;;78.50;25.57;;;;;;;-0.90;93.18;101630.81;5090403;28;20670;-81
2022/12/03 08:08:04;;;;;;;75.20;26.07;;;;;;;-0.90;93.41;101630.81;5095910;28;20200;-81
2022/12/03 08:10:30;;;;;;;72.57;25.57;;;;;;;-0.88;93.16;101636.00;5093987;28;20201;-82
2022/12/03 08:12:59;;;;;;;85.47;26.10;;;;;;;-0.91;93.22;101626.44;5092927;28;20200;-80
2022/12/03 08:15:27;;;;;;;80.10;26.30;;;;;;;-0.92;93.20;101622.09;5093929;28;20228;-82
2022/12/03 08:17:58;;;;;;;76.13;27.47;;;;;;;-0.93;93.50;101622.97;5089376;28;20786;-82
2022/12/03 08:20:27;;;;;;;75.83;25.27;;;;;;;-0.93;93.53;101635.16;5091212;28;21520;-82
2022/12/03 08:22:57;;;;;;;82.97;27.00;;;;;;;-0.94;93.84;101631.69;5096666;28;20212;-82
2022/12/03 08:25:26;;;;;;;82.40;26.17;;;;;;;-0.95;93.91;101629.06;5095446;28;20240;-81
2022/12/03 08:27:57;;;;;;;78.07;24.73;;;;;;;-0.95;93.97;101621.22;5087866;28;20208;-82
2022/12/03 08:30:23;;;;;;;77.97;27.63;;;;;;;-0.93;93.87;101632.56;5088167;28;20201;-82
2022/12/03 08:32:53;;;;;;;86.27;28.23;;;;;;;-0.93;94.26;101633.44;5087699;28;20299;-81
2022/12/03 08:35:23;;;;;;;69.47;26.27;;;;;;;-0.92;94.39;101627.31;5095636;28;20224;-82
2022/12/03 08:37:55;;;;;;;85.50;27.60;;;;;;;-0.89;94.43;101627.28;5088223;28;20216;-81
2022/12/03 08:40:27;;;;;;;77.00;26.67;;;;;;;-0.88;94.76;101626.41;5095575;28;20192;-81
2022/12/03 08:42:54;;;;;;;73.40;25.73;;;;;;;-0.90;94.44;101625.59;5092864;28;20514;-82
2022/12/03 08:45:41;;;;;;;75.73;26.33;;;;;;;-0.90;94.51;101625.59;5092884;28;20609;-82
2022/12/03 08:48:31;;;;;;;73.87;26.17;;;;;;;-0.90;94.80;101628.19;5086111;28;20211;-82
2022/12/03 08:51:00;;;;;;;74.70;26.57;;;;;;;-0.91;94.69;101623.84;5088152;28;20208;-82
2022/12/03 08:53:33;;;;;;;81.30;27.67;;;;;;;-0.92;95.05;101619.47;5087934;28;20221;-81
2022/12/03 08:56:03;;;;;;;80.10;24.67;;;;;;;-0.91;94.92;101618.59;5094356;28;20229;-81
2022/12/03 08:58:40;;;;;;;80.17;26.47;;;;;;;-0.89;95.05;101621.19;5087133;28;20216;-82
2022/12/03 09:01:28;;;;;;;82.10;27.83;;;;;;;-0.90;95.29;101622.09;5088724;28;20208;-82
2022/12/03 09:03:57;;;;;;;67.67;24.00;;;;;;;-0.88;95.51;101615.97;5091174;28;20211;-82
2022/12/03 09:06:24;;;;;;;76.03;27.17;;;;;;;-0.89;95.51;101624.69;5088992;28;20243;-82
2022/12/03 09:08:50;;;;;;;80.70;26.20;;;;;;;-0.88;95.19;101625.56;5091022;28;20722;-81
2022/12/03 09:11:18;;;;;;;77.07;26.33;;;;;;;-0.87;95.48;101630.78;5094606;28;20585;-82
2022/12/03 09:13:44;;;;;;;76.90;26.40;;;;;;;-0.87;95.56;101617.72;5097799;28;20211;-81
2022/12/03 09:16:11;;;;;;;69.50;24.47;;;;;;;-0.89;95.54;101626.41;5100392;28;20223;-82
2022/12/03 09:18:37;;;;;;;69.20;25.93;;;;;;;-0.89;95.48;101621.19;5102154;28;20200;-83
2022/12/03 09:21:04;;;;;;;68.33;24.73;;;;;;;-0.91;95.97;101623.84;5101117;28;20212;-82
2022/12/03 09:23:31;;;;;;;78.87;27.23;;;;;;;-0.91;95.59;101623.84;5101889;28;20209;-81
2022/12/03 09:25:57;;;;;;;75.63;24.70;;;;;;;-0.91;95.68;101634.31;5094923;28;20236;-82
2022/12/03 09:28:25;;;;;;;76.43;27.40;;;;;;;-0.94;95.58;101623.84;5094966;28;20201;-82
2022/12/03 09:30:52;;;;;;;75.93;25.00;;;;;;;-0.93;95.63;101622.97;5099046;28;20236;-82
2022/12/03 09:33:18;;;;;;;69.97;25.73;;;;;;;-0.92;95.89;101618.59;5096540;28;20578;-83
2022/12/03 09:35:44;;;;;;;78.57;25.93;;;;;;;-0.90;96.03;101615.13;5097486;28;20575;-82
2022/12/03 09:38:11;;;;;;;73.83;25.90;;;;;;;-0.92;95.79;101616.88;5097510;28;20662;-81
2022/12/03 09:40:38;;;;;;;63.03;23.67;;;;;;;-0.93;95.87;101619.47;5099355;28;20707;-82
2022/12/03 09:43:04;;;;;;;68.53;25.53;;;;;;;-0.94;96.03;101615.13;5099898;28;20200;-80
2022/12/03 09:45:32;;;;;;;74.50;26.40;;;;;;;-0.93;95.90;101619.47;5097141;28;20224;-82
2022/12/03 09:48:01;;;;;;;76.77;26.00;;;;;;;-0.93;95.82;101612.50;5091930;28;20706;-82
2022/12/03 09:50:28;;;;;;;71.40;26.00;;;;;;;-0.93;96.27;101612.50;5094544;28;20207;-80
2022/12/03 09:52:58;;;;;;;69.67;26.23;;;;;;;-0.91;96.09;101607.28;5090411;28;20599;-81
2022/12/03 09:55:27;;;;;;;65.67;24.80;;;;;;;-0.91;96.16;101610.75;5087954;28;20604;-80
2022/12/03 09:57:55;;;;;;;69.27;25.83;;;;;;;-0.89;96.00;101616.84;5090648;28;20214;-80
2022/12/03 10:00:24;;;;;;;81.57;28.23;;;;;;;-0.89;96.09;101611.59;5088595;28;20264;-81
2022/12/03 10:02:55;;;;;;;82.57;29.10;;;;;;;-0.89;96.24;101609.00;5087430;28;20208;-79
2022/12/03 10:05:25;;;;;;;71.70;27.07;;;;;;;-0.89;96.41;101598.53;5085999;28;20228;-81
2022/12/03 10:07:52;;;;;;;76.63;26.57;;;;;;;-0.88;96.00;101600.28;5085367;28;20204;-81
2022/12/03 10:10:22;;;;;;;69.17;24.10;;;;;;;-0.89;96.16;101600.28;5091295;28;20192;-82
2022/12/03 10:12:50;;;;;;;72.10;26.43;;;;;;;-0.91;95.87;101592.47;5086870;28;20204;-80
2022/12/03 10:15:21;;;;;;;76.57;27.97;;;;;;;-0.91;95.93;101595.06;5089767;28;20224;-81
2022/12/03 10:17:50;;;;;;;73.27;27.30;;;;;;;-0.91;96.19;101595.06;5082191;28;20247;-80
2022/12/03 10:20:20;;;;;;;80.87;27.63;;;;;;;-0.89;96.18;101585.44;5083392;28;20207;-81
2022/12/03 10:22:47;;;;;;;75.10;26.60;;;;;;;-0.89;96.44;101593.31;5086573;28;20200;-81
2022/12/03 10:25:16;;;;;;;70.07;26.10;;;;;;;-0.91;96.30;101592.47;5093310;28;20239;-81
2022/12/03 10:27:43;;;;;;;64.90;25.20;;;;;;;-0.91;96.05;101579.38;5093598;28;20220;-80
2022/12/03 10:30:22;;;;;;;72.97;27.67;;;;;;;-0.91;96.02;101587.22;5093807;28;20212;-81
2022/12/03 10:32:50;;;;;;;71.77;26.83;;;;;;;-0.92;96.25;101577.63;5091912;28;20231;-81
2022/12/03 10:35:21;;;;;;;70.50;26.13;;;;;;;-0.90;96.34;101575.91;5097244;28;20219;-80
2022/12/03 10:38:09;;;;;;;78.30;27.37;;;;;;;-0.88;96.45;101576.75;5097829;28;20196;-80
2022/12/03 10:40:38;;;;;;;75.07;27.23;;;;;;;-0.86;96.09;101575.00;5086494;28;20627;-81
2022/12/03 10:43:20;;;;;;;65.27;24.33;;;;;;;-0.85;95.94;101576.75;5097011;28;20213;-81
2022/12/03 10:45:47;;;;;;;68.67;25.63;;;;;;;-0.85;96.10;101568.03;5091450;28;20235;-80
2022/12/03 10:48:16;;;;;;;67.67;25.03;;;;;;;-0.87;96.08;101575.88;5084453;28;20213;-80
2022/12/03 10:50:52;;;;;;;74.10;27.73;;;;;;;-0.87;96.40;101573.25;5086744;28;20204;-82
2022/12/03 10:53:20;;;;;;;76.70;27.10;;;;;;;-0.86;96.23;101567.16;5085398;28;20200;-80
2022/12/03 10:55:50;;;;;;;68.43;27.00;;;;;;;-0.84;96.30;101568.03;5083395;28;20239;-81
2022/12/03 10:58:21;;;;;;;69.97;27.27;;;;;;;-0.82;96.20;101571.50;5083236;28;20232;-79
2022/12/03 11:00:49;;;;;;;70.20;26.43;;;;;;;-0.82;96.26;101565.41;5084818;28;20207;-81
2022/12/03 11:03:19;;;;;;;71.73;28.73;;;;;;;-0.81;95.97;101557.56;5082140;28;20201;-81
2022/12/03 11:05:45;;;;;;;68.63;26.57;;;;;;;-0.79;96.25;101555.81;5088050;28;20220;-80
2022/12/03 11:08:18;;;;;;;70.53;25.30;;;;;;;-0.76;96.26;101549.72;5097503;28;20218;-80
2022/12/03 11:10:45;;;;;;;70.70;27.00;;;;;;;-0.75;96.19;101556.69;5090041;28;20200;-81
2022/12/03 11:13:51;;;;;;;76.13;28.93;;;;;;;-0.74;95.96;101546.22;5093978;28;20205;-81
2022/12/03 11:17:07;;;;;;;69.90;26.63;;;;;;;-0.72;96.22;101543.59;5086571;28;20220;-80
2022/12/03 11:19:50;;;;;;;70.77;26.40;;;;;;;-0.73;96.37;101545.34;5094564;28;20232;-80
2022/12/03 11:22:40;;;;;;;71.37;27.30;;;;;;;-0.74;95.95;101537.50;5088880;28;20208;-81
2022/12/03 11:25:46;;;;;;;74.97;26.07;;;;;;;-0.72;95.96;101535.75;5090208;28;20232;-80
2022/12/03 11:28:36;;;;;;;72.13;25.63;;;;;;;-0.72;95.88;101530.53;5087046;28;20209;-80
2022/12/03 11:31:08;;;;;;;63.73;24.60;;;;;;;-0.75;95.61;101526.16;5092200;28;20212;-80